sensor_id;sensor_type;location;lat;lon;timestamp;pressure;altitude;pressure_sealevel;temperature;humidity
72086;BME280;64750;52.134;5.424;2023-04-10T00:01:43;102291.28;;;11.24;60.51
72086;BME280;64750;52.134;5.424;2023-04-10T00:04:09;102286.03;;;11.24;60.51
72086;BME280;64750;52.134;5.424;2023-04-10T00:06:36;102279.78;;;11.26;60.38
72086;BME280;64750;52.134;5.424;2023-04-10T00:09:02;102272.75;;;11.27;60.01
72086;BME280;64750;52.134;5.424;2023-04-10T00:11:29;102269.41;;;11.23;59.91
72086;BME280;64750;52.134;5.424;2023-04-10T00:13:55;102269.47;;;11.22;60.05
72086;BME280;64750;52.134;5.424;2023-04-10T00:16:21;102267.75;;;11.21;60.03
72086;BME280;64750;52.134;5.424;2023-04-10T00:18:48;102269.56;;;11.19;60.07
72086;BME280;64750;52.134;5.424;2023-04-10T00:21:14;102265.22;;;11.18;60.12
72086;BME280;64750;52.134;5.424;2023-04-10T00:23:41;102256.59;;;11.14;60.19
72086;BME280;64750;52.134;5.424;2023-04-10T00:26:07;102252.19;;;11.14;60.12
72086;BME280;64750;52.134;5.424;2023-04-10T00:28:33;102242.47;;;11.16;60.05
72086;BME280;64750;52.134;5.424;2023-04-10T00:31:06;102239.84;;;11.16;60.09
72086;BME280;64750;52.134;5.424;2023-04-10T00:33:32;102242.56;;;11.13;60.12
72086;BME280;64750;52.134;5.424;2023-04-10T00:35:58;102231.06;;;11.16;60.06
72086;BME280;64750;52.134;5.424;2023-04-10T00:38:25;102228.44;;;11.16;59.90
72086;BME280;64750;52.134;5.424;2023-04-10T00:40:51;102225.94;;;11.13;60.10
72086;BME280;64750;52.134;5.424;2023-04-10T00:43:18;102225.06;;;11.12;59.93
72086;BME280;64750;52.134;5.424;2023-04-10T00:45:45;102219.88;;;11.11;59.72
72086;BME280;64750;52.134;5.424;2023-04-10T00:48:14;102223.38;;;11.11;59.93
72086;BME280;64750;52.134;5.424;2023-04-10T00:50:41;102224.28;;;11.10;59.80
72086;BME280;64750;52.134;5.424;2023-04-10T00:53:07;102217.31;;;11.09;59.77
72086;BME280;64750;52.134;5.424;2023-04-10T00:55:33;102214.75;;;11.08;59.87
72086;BME280;64750;52.134;5.424;2023-04-10T00:58:00;102214.00;;;11.04;59.92
72086;BME280;64750;52.134;5.424;2023-04-10T01:00:27;102209.66;;;11.03;60.26
72086;BME280;64750;52.134;5.424;2023-04-10T01:05:23;102208.06;;;10.99;60.60
72086;BME280;64750;52.134;5.424;2023-04-10T01:11:04;102204.84;;;10.92;60.81
72086;BME280;64750;52.134;5.424;2023-04-10T01:13:38;102204.88;;;10.91;60.72
72086;BME280;64750;52.134;5.424;2023-04-10T01:16:11;102199.63;;;10.91;60.64
72086;BME280;64750;52.134;5.424;2023-04-10T01:21:21;102194.56;;;10.86;60.95
72086;BME280;64750;52.134;5.424;2023-04-10T01:27:09;102186.66;;;10.86;60.93
72086;BME280;64750;52.134;5.424;2023-04-10T01:29:40;102180.44;;;10.89;60.89
72086;BME280;64750;52.134;5.424;2023-04-10T01:32:12;102184.88;;;10.87;60.94
72086;BME280;64750;52.134;5.424;2023-04-10T01:34:44;102177.06;;;10.85;61.16
72086;BME280;64750;52.134;5.424;2023-04-10T01:39:46;102180.59;;;10.84;61.29
72086;BME280;64750;52.134;5.424;2023-04-10T01:42:15;102173.63;;;10.83;61.32
72086;BME280;64750;52.134;5.424;2023-04-10T01:44:45;102172.78;;;10.82;61.24
72086;BME280;64750;52.134;5.424;2023-04-10T01:47:14;102171.88;;;10.83;61.01
72086;BME280;64750;52.134;5.424;2023-04-10T01:49:43;102165.72;;;10.83;60.98
72086;BME280;64750;52.134;5.424;2023-04-10T01:52:11;102162.25;;;10.82;61.07
72086;BME280;64750;52.134;5.424;2023-04-10T01:54:38;102161.34;;;10.83;61.07
72086;BME280;64750;52.134;5.424;2023-04-10T01:57:04;102166.78;;;10.79;60.97
72086;BME280;64750;52.134;5.424;2023-04-10T01:59:31;102162.38;;;10.79;61.07
72086;BME280;64750;52.134;5.424;2023-04-10T02:01:59;102159.78;;;10.78;61.07
72086;BME280;64750;52.134;5.424;2023-04-10T02:04:26;102158.13;;;10.77;61.26
72086;BME280;64750;52.134;5.424;2023-04-10T02:06:58;102152.84;;;10.77;61.28
72086;BME280;64750;52.134;5.424;2023-04-10T02:09:34;102160.78;;;10.75;61.38
72086;BME280;64750;52.134;5.424;2023-04-10T02:12:08;102154.75;;;10.73;61.34
72086;BME280;64750;52.134;5.424;2023-04-10T02:14:42;102149.47;;;10.73;61.42
72086;BME280;64750;52.134;5.424;2023-04-10T02:17:12;102147.69;;;10.74;61.24
72086;BME280;64750;52.134;5.424;2023-04-10T02:19:40;102149.56;;;10.72;61.30
72086;BME280;64750;52.134;5.424;2023-04-10T02:22:06;102157.47;;;10.70;61.39
72086;BME280;64750;52.134;5.424;2023-04-10T02:24:33;102154.81;;;10.72;61.69
72086;BME280;64750;52.134;5.424;2023-04-10T02:27:00;102145.25;;;10.69;61.61
72086;BME280;64750;52.134;5.424;2023-04-10T02:29:27;102136.63;;;10.65;61.71
72086;BME280;64750;52.134;5.424;2023-04-10T02:31:53;102135.72;;;10.66;61.70
72086;BME280;64750;52.134;5.424;2023-04-10T02:34:19;102143.66;;;10.65;61.57
72086;BME280;64750;52.134;5.424;2023-04-10T02:36:46;102138.41;;;10.65;61.76
72086;BME280;64750;52.134;5.424;2023-04-10T02:39:12;102143.78;;;10.62;62.04
72086;BME280;64750;52.134;5.424;2023-04-10T02:41:39;102140.34;;;10.60;62.12
72086;BME280;64750;52.134;5.424;2023-04-10T02:44:05;102145.59;;;10.60;62.01
72086;BME280;64750;52.134;5.424;2023-04-10T02:46:32;102152.59;;;10.61;62.07
72086;BME280;64750;52.134;5.424;2023-04-10T02:48:58;102141.09;;;10.63;61.94
72086;BME280;64750;52.134;5.424;2023-04-10T02:51:25;102144.59;;;10.64;61.97
72086;BME280;64750;52.134;5.424;2023-04-10T02:53:51;102141.97;;;10.64;61.85
72086;BME280;64750;52.134;5.424;2023-04-10T02:56:18;102142.06;;;10.61;61.95
72086;BME280;64750;52.134;5.424;2023-04-10T02:58:45;102149.13;;;10.60;61.99
72086;BME280;64750;52.134;5.424;2023-04-10T03:01:12;102143.91;;;10.59;61.96
72086;BME280;64750;52.134;5.424;2023-04-10T03:03:39;102144.84;;;10.58;61.84
72086;BME280;64750;52.134;5.424;2023-04-10T03:06:08;102150.16;;;10.56;61.90
72086;BME280;64750;52.134;5.424;2023-04-10T03:08:34;102155.41;;;10.56;62.05
72086;BME280;64750;52.134;5.424;2023-04-10T03:11:00;102154.59;;;10.54;61.91
72086;BME280;64750;52.134;5.424;2023-04-10T03:13:27;102151.06;;;10.55;62.07
72086;BME280;64750;52.134;5.424;2023-04-10T03:15:53;102147.56;;;10.55;62.17
72086;BME280;64750;52.134;5.424;2023-04-10T03:18:20;102141.63;;;10.49;61.89
72086;BME280;64750;52.134;5.424;2023-04-10T03:20:47;102141.63;;;10.49;62.31
72086;BME280;64750;52.134;5.424;2023-04-10T03:23:13;102140.72;;;10.50;62.19
72086;BME280;64750;52.134;5.424;2023-04-10T03:25:40;102140.72;;;10.50;62.33
72086;BME280;64750;52.134;5.424;2023-04-10T03:28:07;102143.34;;;10.50;62.45
72086;BME280;64750;52.134;5.424;2023-04-10T03:30:33;102140.66;;;10.52;62.18
72086;BME280;64750;52.134;5.424;2023-04-10T03:33:02;102135.47;;;10.50;62.18
72086;BME280;64750;52.134;5.424;2023-04-10T03:35:29;102133.75;;;10.49;62.26
72086;BME280;64750;52.134;5.424;2023-04-10T03:37:55;102136.38;;;10.49;62.20
72086;BME280;64750;52.134;5.424;2023-04-10T03:40:22;102135.59;;;10.47;62.17
72086;BME280;64750;52.134;5.424;2023-04-10T03:42:48;102130.38;;;10.46;62.11
72086;BME280;64750;52.134;5.424;2023-04-10T03:45:15;102122.56;;;10.44;62.32
72086;BME280;64750;52.134;5.424;2023-04-10T03:47:42;102127.88;;;10.43;62.35
72086;BME280;64750;52.134;5.424;2023-04-10T03:50:08;102120.00;;;10.43;62.17
72086;BME280;64750;52.134;5.424;2023-04-10T03:52:35;102126.16;;;10.42;62.14
72086;BME280;64750;52.134;5.424;2023-04-10T03:55:02;102119.25;;;10.39;62.27
72086;BME280;64750;52.134;5.424;2023-04-10T03:57:28;102120.16;;;10.38;62.08
72086;BME280;64750;52.134;5.424;2023-04-10T03:59:55;102117.53;;;10.38;62.22
72086;BME280;64750;52.134;5.424;2023-04-10T04:02:21;102117.53;;;10.38;62.22
72086;BME280;64750;52.134;5.424;2023-04-10T04:04:48;102111.50;;;10.36;62.09
72086;BME280;64750;52.134;5.424;2023-04-10T04:07:15;102102.78;;;10.34;62.22
72086;BME280;64750;52.134;5.424;2023-04-10T04:09:41;102099.38;;;10.32;62.30
72086;BME280;64750;52.134;5.424;2023-04-10T04:12:08;102092.38;;;10.31;62.27
72086;BME280;64750;52.134;5.424;2023-04-10T04:14:34;102081.13;;;10.27;62.25
72086;BME280;64750;52.134;5.424;2023-04-10T04:17:01;102090.91;;;10.24;62.03
72086;BME280;64750;52.134;5.424;2023-04-10T04:19:27;102090.00;;;10.25;62.12
72086;BME280;64750;52.134;5.424;2023-04-10T04:21:53;102084.00;;;10.21;61.90
72086;BME280;64750;52.134;5.424;2023-04-10T04:24:20;102086.63;;;10.21;61.98
72086;BME280;64750;52.134;5.424;2023-04-10T04:26:47;102094.56;;;10.20;61.92
72086;BME280;64750;52.134;5.424;2023-04-10T04:29:13;102096.34;;;10.19;61.97
72086;BME280;64750;52.134;5.424;2023-04-10T04:31:40;102092.91;;;10.17;62.25
72086;BME280;64750;52.134;5.424;2023-04-10T04:34:06;102095.69;;;10.14;62.21
72086;BME280;64750;52.134;5.424;2023-04-10T04:36:32;102087.78;;;10.14;62.37
72086;BME280;64750;52.134;5.424;2023-04-10T04:38:59;102088.72;;;10.13;62.32
72086;BME280;64750;52.134;5.424;2023-04-10T04:41:25;102084.44;;;10.10;62.33
72086;BME280;64750;52.134;5.424;2023-04-10T04:43:52;102087.97;;;10.09;62.56
72086;BME280;64750;52.134;5.424;2023-04-10T04:46:19;102082.78;;;10.08;62.72
72086;BME280;64750;52.134;5.424;2023-04-10T04:48:45;102078.28;;;10.10;62.48
72086;BME280;64750;52.134;5.424;2023-04-10T04:51:12;102076.66;;;10.07;62.61
72086;BME280;64750;52.134;5.424;2023-04-10T04:53:38;102071.38;;;10.07;62.51
72086;BME280;64750;52.134;5.424;2023-04-10T04:56:05;102080.16;;;10.08;62.48
72086;BME280;64750;52.134;5.424;2023-04-10T04:58:31;102075.88;;;10.05;62.75
72086;BME280;64750;52.134;5.424;2023-04-10T05:00:58;102078.53;;;10.04;62.63
72086;BME280;64750;52.134;5.424;2023-04-10T05:03:24;102081.97;;;10.06;62.38
72086;BME280;64750;52.134;5.424;2023-04-10T05:05:51;102083.84;;;10.02;62.81
72086;BME280;64750;52.134;5.424;2023-04-10T05:08:17;102083.06;;;10.00;62.62
72086;BME280;64750;52.134;5.424;2023-04-10T05:10:44;102073.47;;;9.99;62.77
72086;BME280;64750;52.134;5.424;2023-04-10T05:13:11;102072.66;;;9.97;62.81
72086;BME280;64750;52.134;5.424;2023-04-10T05:15:37;102069.13;;;9.98;62.79
72086;BME280;64750;52.134;5.424;2023-04-10T05:18:04;102061.25;;;9.98;62.72
72086;BME280;64750;52.134;5.424;2023-04-10T05:20:33;102066.44;;;9.99;62.84
72086;BME280;64750;52.134;5.424;2023-04-10T05:23:01;102065.59;;;9.99;62.87
72086;BME280;64750;52.134;5.424;2023-04-10T05:25:28;102070.84;;;9.99;62.55
72086;BME280;64750;52.134;5.424;2023-04-10T05:27:55;102068.22;;;9.99;62.71
72086;BME280;64750;52.134;5.424;2023-04-10T05:30:21;102065.66;;;9.97;62.49
72086;BME280;64750;52.134;5.424;2023-04-10T05:32:48;102070.03;;;9.97;62.67
72086;BME280;64750;52.134;5.424;2023-04-10T05:35:14;102061.25;;;9.98;62.78
72086;BME280;64750;52.134;5.424;2023-04-10T05:37:41;102064.72;;;9.98;62.72
72086;BME280;64750;52.134;5.424;2023-04-10T05:40:07;102052.44;;;9.99;62.88
72086;BME280;64750;52.134;5.424;2023-04-10T05:42:34;102057.72;;;9.99;62.73
72086;BME280;64750;52.134;5.424;2023-04-10T05:45:00;102064.69;;;10.00;62.81
72086;BME280;64750;52.134;5.424;2023-04-10T05:47:27;102057.72;;;9.99;62.93
72086;BME280;64750;52.134;5.424;2023-04-10T05:49:53;102055.19;;;9.96;62.79
72086;BME280;64750;52.134;5.424;2023-04-10T05:52:20;102056.91;;;9.97;62.75
72086;BME280;64750;52.134;5.424;2023-04-10T05:54:46;102052.63;;;9.94;62.69
72086;BME280;64750;52.134;5.424;2023-04-10T05:57:12;102057.88;;;9.94;62.93
72086;BME280;64750;52.134;5.424;2023-04-10T05:59:39;102058.75;;;9.95;62.66
72086;BME280;64750;52.134;5.424;2023-04-10T06:02:05;102052.63;;;9.94;62.65
72086;BME280;64750;52.134;5.424;2023-04-10T06:04:31;102051.78;;;9.94;62.72
72086;BME280;64750;52.134;5.424;2023-04-10T06:06:58;102046.47;;;9.95;63.01
72086;BME280;64750;52.134;5.424;2023-04-10T06:09:25;102046.47;;;9.95;62.86
72086;BME280;64750;52.134;5.424;2023-04-10T06:11:51;102041.13;;;9.97;63.19
72086;BME280;64750;52.134;5.424;2023-04-10T06:14:19;102045.53;;;9.96;62.85
72086;BME280;64750;52.134;5.424;2023-04-10T06:16:45;102042.91;;;9.96;63.03
72086;BME280;64750;52.134;5.424;2023-04-10T06:19:11;102041.13;;;9.97;63.18
72086;BME280;64750;52.134;5.424;2023-04-10T06:21:38;102041.13;;;9.97;63.31
72086;BME280;64750;52.134;5.424;2023-04-10T06:24:04;102030.63;;;9.97;63.12
72086;BME280;64750;52.134;5.424;2023-04-10T06:26:31;102025.38;;;9.97;63.28
72086;BME280;64750;52.134;5.424;2023-04-10T06:28:58;102021.84;;;9.98;63.07
72086;BME280;64750;52.134;5.424;2023-04-10T06:31:25;102010.38;;;10.00;63.26
72086;BME280;64750;52.134;5.424;2023-04-10T06:33:52;102012.91;;;10.02;63.06
72086;BME280;64750;52.134;5.424;2023-04-10T06:36:18;102013.84;;;10.01;63.16
72086;BME280;64750;52.134;5.424;2023-04-10T06:38:45;102008.72;;;9.98;62.86
72086;BME280;64750;52.134;5.424;2023-04-10T06:41:12;102000.75;;;9.99;63.21
72086;BME280;64750;52.134;5.424;2023-04-10T06:43:38;101993.69;;;10.01;63.33
72086;BME280;64750;52.134;5.424;2023-04-10T06:46:05;101987.56;;;10.01;63.01
72086;BME280;64750;52.134;5.424;2023-04-10T06:48:32;101985.81;;;10.01;63.28
72086;BME280;64750;52.134;5.424;2023-04-10T06:50:59;101987.53;;;10.02;63.03
72086;BME280;64750;52.134;5.424;2023-04-10T06:53:28;101984.84;;;10.04;63.10
72086;BME280;64750;52.134;5.424;2023-04-10T06:55:55;101978.69;;;10.05;63.21
72086;BME280;64750;52.134;5.424;2023-04-10T06:58:22;101976.97;;;10.04;63.03
72086;BME280;64750;52.134;5.424;2023-04-10T07:00:49;101968.94;;;10.07;63.17
72086;BME280;64750;52.134;5.424;2023-04-10T07:03:16;101967.13;;;10.09;63.21
72086;BME280;64750;52.134;5.424;2023-04-10T07:05:42;101969.75;;;10.09;63.06
72086;BME280;64750;52.134;5.424;2023-04-10T07:08:09;101970.53;;;10.11;63.23
72086;BME280;64750;52.134;5.424;2023-04-10T07:10:35;101959.09;;;10.12;63.11
72086;BME280;64750;52.134;5.424;2023-04-10T07:13:02;101950.25;;;10.15;63.39
72086;BME280;64750;52.134;5.424;2023-04-10T07:15:28;101945.78;;;10.17;63.02
72086;BME280;64750;52.134;5.424;2023-04-10T07:17:54;101937.84;;;10.18;63.05
72086;BME280;64750;52.134;5.424;2023-04-10T07:20:21;101926.44;;;10.20;62.76
72086;BME280;64750;52.134;5.424;2023-04-10T07:22:48;101925.44;;;10.22;62.37
72086;BME280;64750;52.134;5.424;2023-04-10T07:25:14;101924.47;;;10.25;62.30
72086;BME280;64750;52.134;5.424;2023-04-10T07:27:41;101923.47;;;10.27;61.62
72086;BME280;64750;52.134;5.424;2023-04-10T07:30:08;101912.91;;;10.29;61.60
72086;BME280;64750;52.134;5.424;2023-04-10T07:32:37;101907.56;;;10.30;61.44
72086;BME280;64750;52.134;5.424;2023-04-10T07:35:05;101913.56;;;10.34;61.35
72086;BME280;64750;52.134;5.424;2023-04-10T07:37:32;101910.91;;;10.36;61.31
72086;BME280;64750;52.134;5.424;2023-04-10T07:39:59;101908.09;;;10.40;61.29
72086;BME280;64750;52.134;5.424;2023-04-10T07:42:26;101903.56;;;10.44;61.41
72086;BME280;64750;52.134;5.424;2023-04-10T07:44:52;101897.38;;;10.45;61.00
72086;BME280;64750;52.134;5.424;2023-04-10T07:47:19;101903.34;;;10.48;61.14
72086;BME280;64750;52.134;5.424;2023-04-10T07:49:45;101902.31;;;10.53;61.26
72086;BME280;64750;52.134;5.424;2023-04-10T07:52:11;101899.53;;;10.56;60.98
72086;BME280;64750;52.134;5.424;2023-04-10T07:54:38;101895.81;;;10.61;61.40
72086;BME280;64750;52.134;5.424;2023-04-10T07:57:04;101898.22;;;10.66;61.26
72086;BME280;64750;52.134;5.424;2023-04-10T07:59:30;101893.69;;;10.70;60.96
72086;BME280;64750;52.134;5.424;2023-04-10T08:01:57;101882.19;;;10.72;61.04
72086;BME280;64750;52.134;5.424;2023-04-10T08:04:23;101866.25;;;10.75;61.58
72086;BME280;64750;52.134;5.424;2023-04-10T08:06:50;101869.69;;;10.77;61.32
72086;BME280;64750;52.134;5.424;2023-04-10T08:09:16;101871.31;;;10.80;60.68
72086;BME280;64750;52.134;5.424;2023-04-10T08:11:43;101870.47;;;10.79;60.64
72086;BME280;64750;52.134;5.424;2023-04-10T08:14:09;101873.09;;;10.79;60.72
72086;BME280;64750;52.134;5.424;2023-04-10T08:16:37;101866.97;;;10.79;60.53
72086;BME280;64750;52.134;5.424;2023-04-10T08:19:04;101862.59;;;10.79;60.33
72086;BME280;64750;52.134;5.424;2023-04-10T08:21:30;101863.44;;;10.80;60.49
72086;BME280;64750;52.134;5.424;2023-04-10T08:23:59;101861.53;;;10.83;60.53
72086;BME280;64750;52.134;5.424;2023-04-10T08:26:27;101871.06;;;10.86;60.49
72086;BME280;64750;52.134;5.424;2023-04-10T08:28:55;101863.88;;;10.90;60.23
72086;BME280;64750;52.134;5.424;2023-04-10T08:31:23;101866.34;;;10.93;60.66
72086;BME280;64750;52.134;5.424;2023-04-10T08:33:50;101858.31;;;10.96;60.55
72086;BME280;64750;52.134;5.424;2023-04-10T08:36:17;101862.59;;;10.98;60.40
72086;BME280;64750;52.134;5.424;2023-04-10T08:38:46;101839.72;;;11.00;60.62
72086;BME280;64750;52.134;5.424;2023-04-10T08:41:15;101835.16;;;11.04;60.53
72086;BME280;64750;52.134;5.424;2023-04-10T08:43:42;101828.09;;;11.05;60.94
72086;BME280;64750;52.134;5.424;2023-04-10T08:46:11;101843.06;;;11.04;60.53
72086;BME280;64750;52.134;5.424;2023-04-10T08:51:22;101833.31;;;11.06;60.86
72086;BME280;64750;52.134;5.424;2023-04-10T08:53:56;101824.47;;;11.07;60.76
72086;BME280;64750;52.134;5.424;2023-04-10T08:56:24;101821.84;;;11.07;60.83
72086;BME280;64750;52.134;5.424;2023-04-10T08:58:51;101826.13;;;11.10;61.25
72086;BME280;64750;52.134;5.424;2023-04-10T09:01:20;101826.06;;;11.11;60.83
72086;BME280;64750;52.134;5.424;2023-04-10T09:03:47;101825.06;;;11.14;61.29
72086;BME280;64750;52.134;5.424;2023-04-10T09:06:13;101825.91;;;11.14;61.48
72086;BME280;64750;52.134;5.424;2023-04-10T09:08:39;101817.09;;;11.15;61.63
72086;BME280;64750;52.134;5.424;2023-04-10T09:11:06;101822.28;;;11.17;61.65
72086;BME280;64750;52.134;5.424;2023-04-10T09:13:41;101807.34;;;11.18;61.93
72086;BME280;64750;52.134;5.424;2023-04-10T09:16:09;101801.94;;;11.21;62.44
72086;BME280;64750;52.134;5.424;2023-04-10T09:18:44;101798.41;;;11.22;62.18
72086;BME280;64750;52.134;5.424;2023-04-10T09:21:14;101788.72;;;11.22;61.67
72086;BME280;64750;52.134;5.424;2023-04-10T09:23:42;101778.97;;;11.24;61.81
72086;BME280;64750;52.134;5.424;2023-04-10T09:26:32;101778.91;;;11.26;61.61
72086;BME280;64750;52.134;5.424;2023-04-10T09:31:34;101769.13;;;11.28;61.72
72086;BME280;64750;52.134;5.424;2023-04-10T09:34:21;101769.09;;;11.29;61.71
72086;BME280;64750;52.134;5.424;2023-04-10T09:36:58;101763.75;;;11.31;61.66
72086;BME280;64750;52.134;5.424;2023-04-10T09:39:37;101757.56;;;11.32;61.28
72086;BME280;64750;52.134;5.424;2023-04-10T09:42:09;101749.59;;;11.33;61.47
72086;BME280;64750;52.134;5.424;2023-04-10T09:44:38;101746.88;;;11.35;61.59
72086;BME280;64750;52.134;5.424;2023-04-10T09:47:16;101739.69;;;11.39;61.56
72086;BME280;64750;52.134;5.424;2023-04-10T09:49:44;101742.06;;;11.43;61.59
72086;BME280;64750;52.134;5.424;2023-04-10T09:54:55;101728.69;;;11.48;61.52
72086;BME280;64750;52.134;5.424;2023-04-10T09:57:23;101725.97;;;11.49;61.51
72086;BME280;64750;52.134;5.424;2023-04-10T09:59:54;101722.28;;;11.54;61.22
72086;BME280;64750;52.134;5.424;2023-04-10T10:02:23;101723.81;;;11.58;61.60
72086;BME280;64750;52.134;5.424;2023-04-10T10:04:51;101711.41;;;11.60;61.28
72086;BME280;64750;52.134;5.424;2023-04-10T10:07:19;101712.19;;;11.62;61.47
72086;BME280;64750;52.134;5.424;2023-04-10T10:09:47;101711.28;;;11.63;61.33
72086;BME280;64750;52.134;5.424;2023-04-10T10:12:34;101706.75;;;11.65;61.30
72086;BME280;64750;52.134;5.424;2023-04-10T10:15:09;101697.84;;;11.68;61.65
72086;BME280;64750;52.134;5.424;2023-04-10T10:17:48;101707.38;;;11.70;61.54
72086;BME280;64750;52.134;5.424;2023-04-10T10:20:17;101696.72;;;11.73;61.33
72086;BME280;64750;52.134;5.424;2023-04-10T10:22:46;101691.34;;;11.75;61.14
72086;BME280;64750;52.134;5.424;2023-04-10T10:25:14;101682.44;;;11.77;60.89
72086;BME280;64750;52.134;5.424;2023-04-10T10:27:41;101680.59;;;11.79;60.95
72086;BME280;64750;52.134;5.424;2023-04-10T10:30:08;101680.44;;;11.82;60.93
72086;BME280;64750;52.134;5.424;2023-04-10T10:32:55;101670.66;;;11.85;61.40
72086;BME280;64750;52.134;5.424;2023-04-10T10:35:22;101667.88;;;11.88;61.51
72086;BME280;64750;52.134;5.424;2023-04-10T10:37:53;101657.19;;;11.91;61.57
72086;BME280;64750;52.134;5.424;2023-04-10T10:43:14;101658.56;;;11.98;61.78
72086;BME280;64750;52.134;5.424;2023-04-10T10:46:11;101642.44;;;12.04;61.92
72086;BME280;64750;52.134;5.424;2023-04-10T10:48:54;101638.72;;;12.08;61.37
72086;BME280;64750;52.134;5.424;2023-04-10T10:51:21;101638.56;;;12.11;61.50
72086;BME280;64750;52.134;5.424;2023-04-10T10:53:48;101641.09;;;12.13;61.31
72086;BME280;64750;52.134;5.424;2023-04-10T10:58:51;101623.16;;;12.20;61.92
72086;BME280;64750;52.134;5.424;2023-04-10T11:01:20;101623.59;;;12.28;61.66
72086;BME280;64750;52.134;5.424;2023-04-10T11:03:48;101614.41;;;12.35;61.43
72086;BME280;64750;52.134;5.424;2023-04-10T11:06:16;101607.97;;;12.41;61.19
72086;BME280;64750;52.134;5.424;2023-04-10T11:08:46;101605.16;;;12.44;61.41
72086;BME280;64750;52.134;5.424;2023-04-10T11:16:19;101572.56;;;12.61;60.75
72086;BME280;64750;52.134;5.424;2023-04-10T11:21:31;101572.44;;;12.78;60.73
72086;BME280;64750;52.134;5.424;2023-04-10T11:29:05;101562.94;;;12.90;60.59
72086;BME280;64750;52.134;5.424;2023-04-10T11:31:32;101559.19;;;12.94;60.05
72086;BME280;64750;52.134;5.424;2023-04-10T11:34:01;101560.72;;;12.99;60.06
72086;BME280;64750;52.134;5.424;2023-04-10T11:36:28;101563.94;;;13.04;59.42
72086;BME280;64750;52.134;5.424;2023-04-10T11:39:03;101552.38;;;13.06;59.48
72086;BME280;64750;52.134;5.424;2023-04-10T11:41:41;101546.06;;;13.09;60.24
72086;BME280;64750;52.134;5.424;2023-04-10T11:44:10;101538.59;;;13.16;60.24
72086;BME280;64750;52.134;5.424;2023-04-10T11:46:40;101530.44;;;13.20;60.52
72086;BME280;64750;52.134;5.424;2023-04-10T11:49:08;101520.44;;;13.25;60.08
72086;BME280;64750;52.134;5.424;2023-04-10T11:51:36;101514.13;;;13.28;59.93
72086;BME280;64750;52.134;5.424;2023-04-10T11:54:10;101522.88;;;13.28;59.99
72086;BME280;64750;52.134;5.424;2023-04-10T11:56:39;101512.22;;;13.30;59.95
72086;BME280;64750;52.134;5.424;2023-04-10T11:59:06;101508.44;;;13.34;60.25
72086;BME280;64750;52.134;5.424;2023-04-10T12:01:44;101512.72;;;13.37;60.60
72086;BME280;64750;52.134;5.424;2023-04-10T12:04:19;101513.47;;;13.39;60.63
72086;BME280;64750;52.134;5.424;2023-04-10T12:06:48;101504.53;;;13.41;60.71
72086;BME280;64750;52.134;5.424;2023-04-10T12:09:16;101506.91;;;13.46;60.75
72086;BME280;64750;52.134;5.424;2023-04-10T12:11:59;101475.00;;;13.49;60.13
72086;BME280;64750;52.134;5.424;2023-04-10T12:14:33;101483.03;;;13.48;60.19
72086;BME280;64750;52.134;5.424;2023-04-10T12:17:01;101482.66;;;13.54;60.15
72086;BME280;64750;52.134;5.424;2023-04-10T12:19:28;101480.75;;;13.56;60.28
72086;BME280;64750;52.134;5.424;2023-04-10T12:21:56;101475.06;;;13.62;59.97
72086;BME280;64750;52.134;5.424;2023-04-10T12:24:43;101462.81;;;13.61;60.14
72086;BME280;64750;52.134;5.424;2023-04-10T12:27:23;101447.84;;;13.61;60.52
72086;BME280;64750;52.134;5.424;2023-04-10T12:29:52;101457.34;;;13.64;61.02
72086;BME280;64750;52.134;5.424;2023-04-10T12:32:19;101446.78;;;13.64;60.71
72086;BME280;64750;52.134;5.424;2023-04-10T12:34:50;101447.53;;;13.66;59.82
72086;BME280;64750;52.134;5.424;2023-04-10T12:37:18;101432.44;;;13.68;59.36
72086;BME280;64750;52.134;5.424;2023-04-10T12:39:44;101433.28;;;13.69;59.13
72086;BME280;64750;52.134;5.424;2023-04-10T12:42:18;101426.88;;;13.73;59.65
72086;BME280;64750;52.134;5.424;2023-04-10T12:44:58;101422.53;;;13.72;59.08
72086;BME280;64750;52.134;5.424;2023-04-10T12:47:27;101416.19;;;13.74;58.51
72086;BME280;64750;52.134;5.424;2023-04-10T12:52:33;101406.56;;;13.73;59.42
72086;BME280;64750;52.134;5.424;2023-04-10T12:55:14;101396.75;;;13.75;58.88
72086;BME280;64750;52.134;5.424;2023-04-10T12:57:46;101391.66;;;13.72;59.35
72086;BME280;64750;52.134;5.424;2023-04-10T13:00:17;101396.75;;;13.75;58.70
72086;BME280;64750;52.134;5.424;2023-04-10T13:02:45;101390.63;;;13.75;58.82
72086;BME280;64750;52.134;5.424;2023-04-10T13:05:12;101375.81;;;13.72;59.07
72086;BME280;64750;52.134;5.424;2023-04-10T13:07:39;101368.94;;;13.70;59.15
72086;BME280;64750;52.134;5.424;2023-04-10T13:10:07;101360.81;;;13.73;58.69
72086;BME280;64750;52.134;5.424;2023-04-10T13:12:35;101346.56;;;13.75;58.07
72086;BME280;64750;52.134;5.424;2023-04-10T13:15:03;101347.28;;;13.77;58.38
72086;BME280;64750;52.134;5.424;2023-04-10T13:17:30;101343.94;;;13.75;58.52
72086;BME280;64750;52.134;5.424;2023-04-10T13:19:56;101340.53;;;13.73;58.03
72086;BME280;64750;52.134;5.424;2023-04-10T13:22:23;101341.47;;;13.72;58.52
72086;BME280;64750;52.134;5.424;2023-04-10T13:24:49;101338.00;;;13.72;58.66
72086;BME280;64750;52.134;5.424;2023-04-10T13:27:16;101336.94;;;13.74;58.39
72086;BME280;64750;52.134;5.424;2023-04-10T13:29:42;101348.34;;;13.75;58.66
72086;BME280;64750;52.134;5.424;2023-04-10T13:32:09;101335.03;;;13.76;58.62
72086;BME280;64750;52.134;5.424;2023-04-10T13:34:35;101338.53;;;13.77;59.13
72086;BME280;64750;52.134;5.424;2023-04-10T13:37:01;101318.34;;;13.76;59.32
72086;BME280;64750;52.134;5.424;2023-04-10T13:39:29;101316.63;;;13.75;59.78